Time;durP1;ratioP1;P1;durP2;ratioP2;P2;SDS_P1;SDS_P2;PMS_P1;PMS_P2;Temp;Humidity;BMP_temperature;BMP_pressure;BME280_temperature;BME280_humidity;BME280_pressure;Samples;Min_cycle;Max_cycle;Signal;HPM_P1;HPM_P2
2024/01/31 00:01:15;;;;;;;4.23;4.03;;;22.50;1.00;;;;;;2608865;54;20161;-64
2024/01/31 00:03:41;;;;;;;4.37;4.07;;;22.40;1.00;;;;;;2609859;54;20193;-63
2024/01/31 00:06:06;;;;;;;3.77;3.47;;;22.40;1.00;;;;;;2612673;39;20848;-59
2024/01/31 00:08:32;;;;;;;3.77;3.57;;;22.40;1.00;;;;;;2610773;54;20166;-58
2024/01/31 00:10:58;;;;;;;3.87;3.67;;;22.40;1.00;;;;;;2608888;54;20173;-59
2024/01/31 00:13:25;;;;;;;3.60;3.40;;;22.40;1.00;;;;;;2608285;54;20155;-58
2024/01/31 00:15:51;;;;;;;4.03;3.80;;;22.40;1.00;;;;;;2608056;54;20167;-59
2024/01/31 00:18:16;;;;;;;4.07;3.87;;;22.40;1.00;;;;;;2608855;54;20419;-58
2024/01/31 00:20:42;;;;;;;4.00;3.70;;;22.40;1.00;;;;;;2609643;47;20270;-59
2024/01/31 00:23:08;;;;;;;3.80;3.50;;;22.40;1.00;;;;;;2609545;54;20166;-58
2024/01/31 00:25:33;;;;;;;3.00;2.80;;;22.40;1.00;;;;;;2608661;54;20166;-59
2024/01/31 00:27:59;;;;;;;3.70;3.50;;;22.40;1.00;;;;;;2609158;54;20163;-59
2024/01/31 00:30:24;;;;;;;3.87;3.57;;;22.40;1.00;;;;;;2608523;54;20230;-60
2024/01/31 00:32:50;;;;;;;3.93;3.63;;;22.40;1.00;;;;;;2609113;54;20186;-59
2024/01/31 00:35:16;;;;;;;3.70;3.40;;;22.40;1.00;;;;;;2608368;54;20150;-59
2024/01/31 00:37:42;;;;;;;4.00;3.70;;;22.40;1.00;;;;;;2610660;54;20167;-59
2024/01/31 00:40:09;;;;;;;3.70;3.50;;;22.40;1.00;;;;;;2611389;54;20148;-59
2024/01/31 00:42:38;;;;;;;3.47;3.23;;;22.30;1.00;;;;;;2610202;54;20164;-59
2024/01/31 00:45:08;;;;;;;4.40;4.10;;;22.30;1.00;;;;;;2608369;54;20407;-58
2024/01/31 00:47:34;;;;;;;3.90;3.60;;;22.30;1.00;;;;;;2610037;54;20430;-58
2024/01/31 00:49:59;;;;;;;4.13;3.83;;;22.30;1.00;;;;;;2611424;54;20511;-58
2024/01/31 00:52:26;;;;;;;3.20;3.10;;;22.30;1.00;;;;;;2611964;54;20171;-59
2024/01/31 00:54:52;;;;;;;3.40;3.20;;;22.30;1.00;;;;;;2612232;54;20168;-60
2024/01/31 00:57:18;;;;;;;3.57;3.30;;;22.30;1.00;;;;;;2611925;54;20396;-59
2024/01/31 00:59:44;;;;;;;3.63;3.33;;;22.30;1.00;;;;;;2611996;54;20447;-59
2024/01/31 01:02:10;;;;;;;4.07;3.77;;;22.30;1.00;;;;;;2612322;47;20815;-59
2024/01/31 01:04:35;;;;;;;3.87;3.67;;;22.30;1.00;;;;;;2611048;54;20179;-59
2024/01/31 01:07:01;;;;;;;4.10;3.80;;;22.30;1.00;;;;;;2612543;47;20499;-62
2024/01/31 01:09:27;;;;;;;3.40;3.20;;;22.30;1.00;;;;;;2612854;54;20177;-62
2024/01/31 01:11:52;;;;;;;3.90;3.70;;;22.30;1.00;;;;;;2614429;46;20186;-62
2024/01/31 01:14:18;;;;;;;3.60;3.40;;;22.30;1.00;;;;;;2613983;54;20188;-62
2024/01/31 01:16:44;;;;;;;3.40;3.20;;;22.30;1.00;;;;;;2614623;54;20165;-59
2024/01/31 01:19:10;;;;;;;3.40;3.20;;;22.30;1.00;;;;;;2613845;54;20214;-59
2024/01/31 01:21:36;;;;;;;3.70;3.40;;;22.30;1.00;;;;;;2613999;31;20662;-59
2024/01/31 01:24:02;;;;;;;3.97;3.60;;;22.30;1.00;;;;;;2615015;39;20663;-59
2024/01/31 01:26:28;;;;;;;3.97;3.77;;;22.30;1.00;;;;;;2614651;54;20429;-59
2024/01/31 01:28:54;;;;;;;3.57;3.37;;;22.20;1.00;;;;;;2613341;54;20474;-59
2024/01/31 01:31:19;;;;;;;4.27;3.97;;;22.30;1.00;;;;;;2614303;47;20160;-59
2024/01/31 01:33:45;;;;;;;3.80;3.60;;;22.20;1.00;;;;;;2614590;54;20154;-58
2024/01/31 01:36:11;;;;;;;4.07;3.77;;;22.20;1.00;;;;;;2615037;39;20779;-58
2024/01/31 01:38:37;;;;;;;4.17;3.97;;;22.20;1.00;;;;;;2613370;54;20165;-58
2024/01/31 01:41:04;;;;;;;3.53;3.33;;;22.20;1.00;;;;;;2613383;54;20151;-58
2024/01/31 01:43:30;;;;;;;3.50;3.30;;;22.20;1.00;;;;;;2614091;54;20454;-59
2024/01/31 01:46:09;;;;;;;4.00;3.73;;;22.20;1.00;;;;;;2613690;54;20428;-59
2024/01/31 01:48:35;;;;;;;4.00;3.70;;;22.20;1.00;;;;;;2612440;54;20462;-59
2024/01/31 01:51:01;;;;;;;4.77;3.47;;;22.20;1.00;;;;;;2610291;54;20402;-59
2024/01/31 01:53:27;;;;;;;3.37;3.13;;;22.20;1.00;;;;;;2611284;54;20179;-58
2024/01/31 01:55:53;;;;;;;4.03;3.83;;;22.20;1.00;;;;;;2610642;54;20500;-59
2024/01/31 01:58:19;;;;;;;3.87;3.57;;;22.20;1.00;;;;;;2609624;54;20936;-59
2024/01/31 02:00:47;;;;;;;4.30;4.10;;;22.20;1.00;;;;;;2609628;54;20398;-59
2024/01/31 02:03:15;;;;;;;4.30;4.00;;;22.20;1.00;;;;;;2611329;54;20210;-59
2024/01/31 02:05:45;;;;;;;4.40;4.10;;;22.20;1.00;;;;;;2610238;54;22198;-59
2024/01/31 02:08:11;;;;;;;4.40;4.10;;;22.20;1.00;;;;;;2610318;46;20530;-59
2024/01/31 02:10:37;;;;;;;4.07;3.77;;;22.20;1.00;;;;;;2609702;54;20473;-59
2024/01/31 02:13:03;;;;;;;4.07;3.87;;;22.10;1.00;;;;;;2610534;39;21448;-59
2024/01/31 02:15:29;;;;;;;4.90;4.40;;;22.20;1.00;;;;;;2609290;54;20261;-61
2024/01/31 02:17:55;;;;;;;3.90;3.70;;;22.10;1.00;;;;;;2610718;54;20397;-61
2024/01/31 02:20:22;;;;;;;3.87;3.67;;;22.10;1.00;;;;;;2609802;54;20156;-62
2024/01/31 02:22:48;;;;;;;4.47;4.17;;;22.10;1.00;;;;;;2609874;39;20603;-61
2024/01/31 02:25:14;;;;;;;3.80;3.60;;;22.10;1.00;;;;;;2611581;54;20411;-58
2024/01/31 02:27:40;;;;;;;3.80;3.50;;;22.10;1.00;;;;;;2612554;31;20957;-59
2024/01/31 02:30:09;;;;;;;4.37;3.97;;;22.10;1.00;;;;;;2612111;51;20404;-58
2024/01/31 02:32:36;;;;;;;4.00;3.80;;;22.10;1.00;;;;;;2609192;54;20412;-58
2024/01/31 02:35:01;;;;;;;3.70;3.40;;;22.10;1.00;;;;;;2609494;54;20412;-57
2024/01/31 02:37:27;;;;;;;4.03;3.80;;;22.10;1.00;;;;;;2608368;54;21545;-58
2024/01/31 02:39:53;;;;;;;3.73;3.53;;;22.10;1.00;;;;;;2609268;54;20167;-58
2024/01/31 02:42:19;;;;;;;3.90;3.60;;;22.10;1.00;;;;;;2609902;54;20158;-58
2024/01/31 02:44:45;;;;;;;3.90;3.60;;;22.10;1.00;;;;;;2610067;54;20461;-57
2024/01/31 02:47:11;;;;;;;4.13;3.83;;;22.10;1.00;;;;;;2608742;54;20175;-57
2024/01/31 02:49:36;;;;;;;4.23;3.93;;;22.10;1.00;;;;;;2608765;54;20151;-57
2024/01/31 02:52:02;;;;;;;4.10;3.83;;;22.10;1.00;;;;;;2609428;54;20185;-58
2024/01/31 02:54:28;;;;;;;4.00;3.70;;;22.10;1.00;;;;;;2610684;54;20243;-57
2024/01/31 02:56:53;;;;;;;4.10;3.90;;;22.10;1.00;;;;;;2613096;54;20836;-58
2024/01/31 02:59:22;;;;;;;3.33;3.13;;;22.10;1.00;;;;;;2612079;47;20159;-58
2024/01/31 03:01:49;;;;;;;4.00;3.70;;;22.10;1.00;;;;;;2613546;39;20590;-57
2024/01/31 03:04:15;;;;;;;3.60;3.30;;;22.00;1.00;;;;;;2613083;47;20443;-58
2024/01/31 03:06:41;;;;;;;4.23;3.97;;;22.00;1.00;;;;;;2611505;54;20404;-59
2024/01/31 03:09:06;;;;;;;4.20;3.90;;;22.00;1.00;;;;;;2612221;54;20155;-60
2024/01/31 03:11:32;;;;;;;4.27;4.07;;;22.00;1.00;;;;;;2612859;54;20250;-59
2024/01/31 03:13:58;;;;;;;3.50;3.30;;;22.00;1.00;;;;;;2612943;54;20192;-60
2024/01/31 03:16:24;;;;;;;4.07;3.80;;;22.10;1.00;;;;;;2613100;54;20415;-60
2024/01/31 03:18:50;;;;;;;3.63;3.43;;;22.10;1.00;;;;;;2612730;54;20498;-60
2024/01/31 03:21:15;;;;;;;4.03;3.80;;;22.00;1.00;;;;;;2613279;54;20156;-60
2024/01/31 03:23:41;;;;;;;4.00;3.70;;;22.10;1.00;;;;;;2611919;47;21117;-60
2024/01/31 03:26:06;;;;;;;4.17;3.87;;;22.10;1.00;;;;;;2611698;54;20166;-58
2024/01/31 03:28:32;;;;;;;3.77;3.57;;;22.00;1.00;;;;;;2612491;54;20151;-57
2024/01/31 03:30:58;;;;;;;4.10;3.80;;;22.10;1.00;;;;;;2611801;54;20154;-57
2024/01/31 03:33:24;;;;;;;4.30;4.00;;;22.10;1.00;;;;;;2612895;54;20500;-57
2024/01/31 03:35:49;;;;;;;4.23;4.03;;;22.10;1.00;;;;;;2612440;54;20250;-58
2024/01/31 03:38:15;;;;;;;3.87;3.67;;;22.10;1.00;;;;;;2612499;54;20151;-58
2024/01/31 03:40:40;;;;;;;3.53;3.33;;;22.10;1.00;;;;;;2613506;39;20639;-59
2024/01/31 03:43:06;;;;;;;4.40;4.20;;;22.00;1.00;;;;;;2611849;54;20168;-59
2024/01/31 03:45:32;;;;;;;4.00;3.80;;;22.10;1.00;;;;;;2613189;54;20185;-60
2024/01/31 03:47:58;;;;;;;4.00;3.80;;;22.00;1.00;;;;;;2611968;54;20476;-59
2024/01/31 03:50:23;;;;;;;3.60;3.33;;;22.00;1.00;;;;;;2612902;54;20147;-59
2024/01/31 03:52:49;;;;;;;3.67;3.47;;;22.00;1.00;;;;;;2612249;54;20161;-60
2024/01/31 03:55:15;;;;;;;3.63;3.43;;;22.00;1.00;;;;;;2612333;47;20209;-59
2024/01/31 03:57:40;;;;;;;3.60;3.40;;;22.00;1.00;;;;;;2612654;54;20236;-61
2024/01/31 04:00:09;;;;;;;4.30;4.00;;;22.00;1.00;;;;;;2613288;54;20702;-59
2024/01/31 04:02:35;;;;;;;3.67;3.47;;;22.00;1.00;;;;;;2611951;39;20621;-59
2024/01/31 04:05:01;;;;;;;3.87;3.67;;;22.00;1.00;;;;;;2612829;47;20449;-59
2024/01/31 04:07:28;;;;;;;3.80;3.60;;;22.00;1.00;;;;;;2613218;54;20417;-59
2024/01/31 04:09:53;;;;;;;4.10;3.90;;;22.00;1.00;;;;;;2612535;54;21748;-59
2024/01/31 04:12:19;;;;;;;4.60;4.30;;;22.00;1.00;;;;;;2611742;54;20423;-59
2024/01/31 04:14:45;;;;;;;3.80;3.60;;;22.00;1.00;;;;;;2613009;54;20229;-62
2024/01/31 04:17:10;;;;;;;3.90;3.70;;;22.00;1.00;;;;;;2612437;54;20158;-67
2024/01/31 04:19:36;;;;;;;3.53;3.33;;;22.00;1.00;;;;;;2612851;54;20143;-65
2024/01/31 04:22:02;;;;;;;3.80;3.60;;;22.00;1.00;;;;;;2613232;54;20194;-67
2024/01/31 04:24:28;;;;;;;4.60;4.20;;;22.00;1.00;;;;;;2612201;54;20175;-67
2024/01/31 04:26:53;;;;;;;4.30;4.00;;;22.00;1.00;;;;;;2612012;54;20159;-66
2024/01/31 04:29:20;;;;;;;3.80;3.60;;;22.00;1.00;;;;;;2612497;54;20400;-67
2024/01/31 04:31:51;;;;;;;4.03;3.83;;;22.00;1.00;;;;;;2612332;54;20175;-66
2024/01/31 04:34:17;;;;;;;3.97;3.67;;;22.00;1.00;;;;;;2614079;39;20863;-67
2024/01/31 04:36:43;;;;;;;4.27;3.97;;;22.00;1.00;;;;;;2612501;54;20518;-59
2024/01/31 04:39:08;;;;;;;4.63;4.33;;;22.00;1.00;;;;;;2613069;54;20163;-60
2024/01/31 04:41:35;;;;;;;4.10;3.90;;;22.00;1.00;;;;;;2612339;54;20720;-60
2024/01/31 04:44:00;;;;;;;4.83;4.43;;;21.90;1.00;;;;;;2612715;54;20257;-59
2024/01/31 04:46:26;;;;;;;3.90;3.70;;;22.00;1.00;;;;;;2613014;54;20967;-58
2024/01/31 04:48:52;;;;;;;4.07;3.77;;;21.90;1.00;;;;;;2611304;54;20184;-59
2024/01/31 04:51:17;;;;;;;4.37;4.07;;;21.90;1.00;;;;;;2612351;54;20178;-59
2024/01/31 04:53:43;;;;;;;4.10;3.90;;;21.90;1.00;;;;;;2612351;54;20153;-59
2024/01/31 04:56:09;;;;;;;4.67;4.37;;;22.00;1.00;;;;;;2612817;47;20758;-60
2024/01/31 04:58:35;;;;;;;3.90;3.60;;;21.90;1.00;;;;;;2611787;54;20175;-60
2024/01/31 05:01:01;;;;;;;3.43;3.23;;;21.90;1.00;;;;;;2613321;54;20285;-59
2024/01/31 05:03:27;;;;;;;3.87;3.60;;;21.90;1.00;;;;;;2612797;54;20448;-59
2024/01/31 05:05:53;;;;;;;3.87;3.67;;;21.90;1.00;;;;;;2612067;54;20461;-59
2024/01/31 05:08:19;;;;;;;7.20;3.43;;;22.00;1.00;;;;;;2612335;54;20397;-59
2024/01/31 05:10:45;;;;;;;4.30;4.00;;;22.10;1.00;;;;;;2612391;54;20160;-60
2024/01/31 05:13:12;;;;;;;3.87;3.57;;;22.00;1.00;;;;;;2611574;51;20170;-59
2024/01/31 05:15:38;;;;;;;5.20;3.60;;;22.00;1.00;;;;;;2612574;54;20410;-60
2024/01/31 05:18:04;;;;;;;4.00;3.60;;;22.00;1.00;;;;;;2612840;54;20416;-59
2024/01/31 05:20:30;;;;;;;4.07;3.43;;;22.00;1.00;;;;;;2612389;47;20163;-59
2024/01/31 05:22:58;;;;;;;3.80;3.50;;;22.10;1.00;;;;;;2612234;54;20689;-60
2024/01/31 05:25:24;;;;;;;3.90;3.60;;;22.00;1.00;;;;;;2612273;54;20260;-58
2024/01/31 05:27:50;;;;;;;4.50;3.63;;;22.00;1.00;;;;;;2611978;54;20400;-58
2024/01/31 05:30:16;;;;;;;4.40;4.10;;;22.00;1.00;;;;;;2611717;54;21581;-58
2024/01/31 05:32:41;;;;;;;4.20;3.80;;;22.00;1.00;;;;;;2612889;54;20172;-59
2024/01/31 05:35:07;;;;;;;3.73;3.50;;;21.90;1.00;;;;;;2612699;54;21407;-59
2024/01/31 05:37:33;;;;;;;3.90;3.70;;;21.90;1.00;;;;;;2612971;54;20153;-58
2024/01/31 05:39:59;;;;;;;3.77;3.47;;;22.00;1.00;;;;;;2612731;54;20175;-59
2024/01/31 05:42:24;;;;;;;4.10;3.20;;;22.00;1.00;;;;;;2612570;54;20155;-58
2024/01/31 05:44:53;;;;;;;3.63;3.33;;;22.00;1.00;;;;;;2612941;54;20174;-60
2024/01/31 05:47:19;;;;;;;3.63;3.30;;;22.00;1.00;;;;;;2610974;54;20260;-60
2024/01/31 05:49:45;;;;;;;3.33;3.13;;;22.00;1.00;;;;;;2610822;54;20530;-60
2024/01/31 05:52:10;;;;;;;3.50;3.30;;;22.10;1.00;;;;;;2612031;39;20792;-60
2024/01/31 05:54:38;;;;;;;3.10;2.90;;;22.10;1.00;;;;;;2611931;54;20250;-59
2024/01/31 05:57:04;;;;;;;3.67;3.37;;;22.10;1.00;;;;;;2612296;54;20165;-64
2024/01/31 05:59:30;;;;;;;3.37;3.10;;;22.10;1.00;;;;;;2612929;54;20496;-63
2024/01/31 06:01:56;;;;;;;4.00;3.70;;;22.10;1.00;;;;;;2611954;54;20411;-64
2024/01/31 06:04:21;;;;;;;3.37;3.17;;;22.10;1.00;;;;;;2612816;54;20177;-63
2024/01/31 06:06:47;;;;;;;3.47;3.27;;;22.10;1.00;;;;;;2613016;54;20174;-64
2024/01/31 06:09:13;;;;;;;2.93;2.80;;;22.10;1.00;;;;;;2613149;54;20179;-64
2024/01/31 06:11:39;;;;;;;3.50;3.30;;;22.10;1.00;;;;;;2613712;54;20234;-62
2024/01/31 06:14:04;;;;;;;3.00;2.80;;;22.10;1.00;;;;;;2612949;54;20258;-64
2024/01/31 06:16:32;;;;;;;3.70;3.40;;;22.10;1.00;;;;;;2613554;54;20404;-64
2024/01/31 06:18:59;;;;;;;3.57;3.37;;;22.10;1.00;;;;;;2612228;54;20170;-64
2024/01/31 06:21:25;;;;;;;3.43;3.23;;;22.20;1.00;;;;;;2613046;54;20503;-64
2024/01/31 06:23:51;;;;;;;4.00;3.70;;;22.20;1.00;;;;;;2612005;47;20515;-63
2024/01/31 06:26:17;;;;;;;4.17;3.87;;;22.20;1.00;;;;;;2612238;54;20200;-64
2024/01/31 06:28:42;;;;;;;2.90;2.70;;;22.10;1.00;;;;;;2613222;54;20502;-64
2024/01/31 06:31:25;;;;;;;4.80;3.37;;;22.20;1.00;;;;;;2613442;54;20254;-64
2024/01/31 06:33:50;;;;;;;3.60;3.30;;;22.20;1.00;;;;;;2612379;54;20172;-62
2024/01/31 06:36:18;;;;;;;2.73;2.63;;;22.20;1.00;;;;;;2612184;54;20399;-61
2024/01/31 06:38:45;;;;;;;3.47;3.27;;;22.50;1.00;;;;;;2611636;54;20169;-58
2024/01/31 06:41:16;;;;;;;3.90;3.70;;;22.80;1.00;;;;;;2612513;47;20432;-60
2024/01/31 06:43:41;;;;;;;3.40;3.10;;;23.00;1.00;;;;;;2611836;54;20427;-59
2024/01/31 06:46:07;;;;;;;3.40;3.20;;;23.20;1.00;;;;;;2612021;54;20495;-58
2024/01/31 06:48:33;;;;;;;3.73;2.70;;;23.30;1.00;;;;;;2612825;47;20163;-58
2024/01/31 06:50:59;;;;;;;5.07;2.57;;;23.20;1.00;;;;;;2608034;54;20223;-58
2024/01/31 06:53:25;;;;;;;2.50;2.40;;;23.00;1.00;;;;;;2610439;54;20291;-58
2024/01/31 06:55:51;;;;;;;2.90;2.70;;;22.90;1.00;;;;;;2612737;54;20145;-60
2024/01/31 06:58:17;;;;;;;3.50;2.67;;;22.80;1.00;;;;;;2611714;54;20422;-60
2024/01/31 07:00:43;;;;;;;2.80;2.60;;;22.70;1.00;;;;;;2609984;54;20189;-60
2024/01/31 07:03:08;;;;;;;2.97;2.77;;;22.70;1.00;;;;;;2611730;54;20202;-61
2024/01/31 07:05:34;;;;;;;2.90;2.70;;;22.60;1.00;;;;;;2611906;54;20171;-60
2024/01/31 07:08:00;;;;;;;5.50;2.43;;;22.50;1.00;;;;;;2612028;47;20184;-58
2024/01/31 07:10:26;;;;;;;2.33;2.17;;;22.50;1.00;;;;;;2611774;54;20459;-59
2024/01/31 07:12:55;;;;;;;3.00;2.80;;;22.50;1.00;;;;;;2610735;54;20421;-60
2024/01/31 07:15:21;;;;;;;3.30;3.00;;;22.50;1.00;;;;;;2613071;54;20172;-59
2024/01/31 07:17:47;;;;;;;2.03;1.93;;;22.50;1.00;;;;;;2612476;54;20494;-59
2024/01/31 07:20:13;;;;;;;3.37;2.47;;;22.40;1.00;;;;;;2611835;54;20421;-59
2024/01/31 07:22:39;;;;;;;2.70;2.50;;;22.40;1.00;;;;;;2612675;54;20157;-59
2024/01/31 07:25:10;;;;;;;2.50;2.30;;;22.40;1.00;;;;;;2611259;54;20976;-59
2024/01/31 07:27:38;;;;;;;2.93;2.70;;;22.40;1.00;;;;;;2611771;54;20158;-59
2024/01/31 07:30:04;;;;;;;2.90;2.70;;;22.40;1.00;;;;;;2611043;47;20429;-58
2024/01/31 07:32:30;;;;;;;2.60;2.43;;;22.40;1.00;;;;;;2612396;54;20515;-59
2024/01/31 07:34:56;;;;;;;3.17;2.87;;;22.40;1.00;;;;;;2611542;54;21491;-59
2024/01/31 07:37:21;;;;;;;2.67;2.47;;;22.40;1.00;;;;;;2612059;54;20238;-60
2024/01/31 07:39:48;;;;;;;3.10;2.90;;;22.40;1.00;;;;;;2612787;54;20174;-59
2024/01/31 07:42:14;;;;;;;2.80;2.60;;;22.40;1.00;;;;;;2611051;54;20677;-60
2024/01/31 07:44:39;;;;;;;2.90;2.40;;;22.40;1.00;;;;;;2610664;54;20519;-60
2024/01/31 07:47:05;;;;;;;4.70;2.23;;;22.40;1.00;;;;;;2611998;54;20171;-57
2024/01/31 07:49:31;;;;;;;2.77;2.57;;;22.30;1.00;;;;;;2611403;54;20206;-58
2024/01/31 07:51:57;;;;;;;2.60;2.50;;;22.30;1.00;;;;;;2611366;54;20165;-58
2024/01/31 07:54:23;;;;;;;2.90;2.60;;;22.30;1.00;;;;;;2611475;39;21258;-57
2024/01/31 07:56:48;;;;;;;2.90;2.70;;;22.30;1.00;;;;;;2612564;39;20214;-58
2024/01/31 07:59:14;;;;;;;2.93;2.67;;;22.30;1.00;;;;;;2611253;54;20185;-58
2024/01/31 08:01:40;;;;;;;2.90;2.70;;;22.30;1.00;;;;;;2612168;54;20154;-58
2024/01/31 08:04:06;;;;;;;3.80;2.23;;;22.30;1.00;;;;;;2612662;54;20187;-57
2024/01/31 08:06:32;;;;;;;3.20;2.90;;;22.30;1.00;;;;;;2611432;54;20174;-59
2024/01/31 08:08:58;;;;;;;2.63;2.43;;;22.30;1.00;;;;;;2611932;54;20401;-60
2024/01/31 08:11:23;;;;;;;2.80;2.60;;;22.30;1.00;;;;;;2611513;54;20172;-60
2024/01/31 08:13:49;;;;;;;3.17;2.60;;;22.30;1.00;;;;;;2611265;54;20170;-59
2024/01/31 08:16:15;;;;;;;2.90;2.70;;;22.30;1.00;;;;;;2612620;47;20250;-60
2024/01/31 08:18:41;;;;;;;3.37;3.10;;;22.30;1.00;;;;;;2612357;54;20166;-59
2024/01/31 08:21:06;;;;;;;3.20;3.00;;;22.30;1.00;;;;;;2612596;47;20428;-60
2024/01/31 08:23:32;;;;;;;2.93;2.73;;;22.20;1.00;;;;;;2611317;47;20189;-59
2024/01/31 08:25:58;;;;;;;3.10;2.80;;;22.20;1.00;;;;;;2610583;48;21064;-59
2024/01/31 08:28:24;;;;;;;2.57;2.40;;;22.30;1.00;;;;;;2612555;54;20956;-59
2024/01/31 08:30:49;;;;;;;4.00;2.97;;;22.20;1.00;;;;;;2612015;54;20143;-59
2024/01/31 08:33:15;;;;;;;3.00;2.80;;;22.20;1.00;;;;;;2613666;54;20212;-60
2024/01/31 08:35:41;;;;;;;3.00;2.80;;;22.20;1.00;;;;;;2613237;54;20245;-60
2024/01/31 08:38:06;;;;;;;5.93;2.53;;;22.20;1.00;;;;;;2612817;54;20200;-59
2024/01/31 08:40:32;;;;;;;2.77;2.57;;;22.20;1.00;;;;;;2611215;54;20257;-59
2024/01/31 08:42:58;;;;;;;3.20;3.00;;;22.20;1.00;;;;;;2612468;54;20158;-59
2024/01/31 08:45:25;;;;;;;3.33;3.13;;;22.20;1.00;;;;;;2613382;54;20170;-59
2024/01/31 08:47:51;;;;;;;2.63;2.43;;;22.20;1.00;;;;;;2612535;54;20157;-59
2024/01/31 08:50:16;;;;;;;2.70;2.60;;;22.20;1.00;;;;;;2612729;54;20417;-59
2024/01/31 08:52:42;;;;;;;3.13;2.93;;;22.20;1.00;;;;;;2613393;54;20161;-59
2024/01/31 08:55:08;;;;;;;2.70;2.50;;;22.20;1.00;;;;;;2610628;54;20168;-59
2024/01/31 08:57:33;;;;;;;3.00;2.80;;;22.20;1.00;;;;;;2612715;39;21048;-59
2024/01/31 08:59:59;;;;;;;3.10;2.90;;;22.20;1.00;;;;;;2611363;47;20168;-59
2024/01/31 09:02:25;;;;;;;3.20;3.00;;;22.20;1.00;;;;;;2612426;54;20287;-59
2024/01/31 09:04:50;;;;;;;2.80;2.60;;;22.20;1.00;;;;;;2613246;49;20262;-60
2024/01/31 09:07:16;;;;;;;3.07;2.87;;;22.20;1.00;;;;;;2612388;54;20152;-59
2024/01/31 09:09:42;;;;;;;3.37;2.73;;;22.20;1.00;;;;;;2612705;39;20656;-59
2024/01/31 09:12:08;;;;;;;2.53;2.40;;;22.20;1.00;;;;;;2613023;54;20156;-59
2024/01/31 09:14:34;;;;;;;3.07;2.77;;;22.20;1.00;;;;;;2612154;54;20176;-59
2024/01/31 09:17:00;;;;;;;3.47;3.10;;;22.20;1.00;;;;;;2612190;54;20440;-66
2024/01/31 09:19:26;;;;;;;3.13;2.80;;;22.20;1.00;;;;;;2613092;54;20469;-66
2024/01/31 09:21:51;;;;;;;3.00;2.80;;;22.20;1.00;;;;;;2613018;54;20158;-66
2024/01/31 09:24:17;;;;;;;2.90;2.70;;;22.20;1.00;;;;;;2611453;54;20256;-66
2024/01/31 09:26:43;;;;;;;3.23;2.93;;;22.20;1.00;;;;;;2612739;39;20650;-58
2024/01/31 09:29:09;;;;;;;3.30;3.00;;;22.20;1.00;;;;;;2611227;39;20900;-58
2024/01/31 09:31:35;;;;;;;3.70;3.00;;;22.20;1.00;;;;;;2612969;39;20922;-58
2024/01/31 09:34:01;;;;;;;3.30;3.10;;;22.10;1.00;;;;;;2612704;54;20462;-58
2024/01/31 09:36:27;;;;;;;2.90;2.70;;;22.20;1.00;;;;;;2612765;54;20231;-58
2024/01/31 09:38:52;;;;;;;3.20;3.00;;;22.20;1.00;;;;;;2613306;54;20189;-58
2024/01/31 09:41:19;;;;;;;3.20;3.00;;;22.20;1.00;;;;;;2611979;54;20460;-58
2024/01/31 09:43:45;;;;;;;3.27;2.97;;;22.20;1.00;;;;;;2613386;39;20559;-58
2024/01/31 09:46:12;;;;;;;3.03;2.90;;;22.10;1.00;;;;;;2613143;47;20499;-58
2024/01/31 09:48:39;;;;;;;2.83;2.73;;;22.10;1.00;;;;;;2613580;39;20857;-57
2024/01/31 09:51:06;;;;;;;4.00;3.30;;;22.20;1.00;;;;;;2613043;54;20416;-57
2024/01/31 09:53:38;;;;;;;3.50;3.20;;;22.20;1.00;;;;;;2612270;54;20429;-57
2024/01/31 09:56:05;;;;;;;3.57;3.37;;;22.10;1.00;;;;;;2613792;39;20881;-58
2024/01/31 09:58:31;;;;;;;3.10;2.90;;;22.10;1.00;;;;;;2612116;47;20429;-58
2024/01/31 10:00:59;;;;;;;3.40;3.20;;;22.10;1.00;;;;;;2612802;39;20835;-58
2024/01/31 10:03:25;;;;;;;3.10;2.90;;;22.10;1.00;;;;;;2612177;54;20210;-57
2024/01/31 10:05:51;;;;;;;3.37;3.10;;;22.20;1.00;;;;;;2613316;54;20428;-58
2024/01/31 10:08:16;;;;;;;2.90;2.70;;;22.20;1.00;;;;;;2612819;54;20152;-58
2024/01/31 10:10:42;;;;;;;3.47;3.00;;;22.20;1.00;;;;;;2614175;31;20682;-58
2024/01/31 10:13:09;;;;;;;4.03;3.20;;;22.20;1.00;;;;;;2613541;47;20818;-59
2024/01/31 10:15:35;;;;;;;3.03;2.83;;;22.20;1.00;;;;;;2613136;54;20154;-59
2024/01/31 10:18:02;;;;;;;3.43;2.93;;;22.20;1.00;;;;;;2612754;54;20401;-59
2024/01/31 10:20:27;;;;;;;2.77;2.57;;;22.20;1.00;;;;;;2613313;54;20414;-59
2024/01/31 10:22:53;;;;;;;3.27;3.07;;;22.20;1.00;;;;;;2613554;54;20426;-58
2024/01/31 10:25:19;;;;;;;3.00;2.80;;;22.20;1.00;;;;;;2614090;39;20215;-62
2024/01/31 10:27:51;;;;;;;3.37;3.07;;;22.20;1.00;;;;;;2612507;47;20178;-62
2024/01/31 10:30:17;;;;;;;3.80;2.93;;;22.20;1.00;;;;;;2613375;47;20420;-62
2024/01/31 10:32:45;;;;;;;2.87;2.67;;;22.20;1.00;;;;;;2613334;54;20438;-61
2024/01/31 10:35:11;;;;;;;3.37;3.07;;;22.20;1.00;;;;;;2613157;54;20416;-61
2024/01/31 10:37:37;;;;;;;2.37;2.27;;;22.20;1.00;;;;;;2612713;54;20407;-61
2024/01/31 10:40:09;;;;;;;3.20;3.00;;;22.20;1.00;;;;;;2612966;47;20416;-61
2024/01/31 10:42:35;;;;;;;3.60;3.30;;;22.20;1.00;;;;;;2612453;54;20428;-61
2024/01/31 10:45:02;;;;;;;3.00;2.60;;;22.20;1.00;;;;;;2612936;54;20515;-61
2024/01/31 10:47:28;;;;;;;3.00;2.80;;;22.20;1.00;;;;;;2613313;54;20392;-62
2024/01/31 10:49:54;;;;;;;2.70;2.50;;;22.20;1.00;;;;;;2612296;51;20446;-61
2024/01/31 10:52:24;;;;;;;3.00;2.80;;;22.20;1.00;;;;;;2613074;54;20163;-61
2024/01/31 10:54:58;;;;;;;3.10;2.90;;;22.20;1.00;;;;;;2612706;54;20418;-62
2024/01/31 10:57:25;;;;;;;2.60;2.50;;;22.20;1.00;;;;;;2612727;54;20972;-61
2024/01/31 10:59:51;;;;;;;3.17;2.97;;;22.20;1.00;;;;;;2611450;54;21050;-62
2024/01/31 11:02:20;;;;;;;3.67;3.37;;;22.20;1.00;;;;;;2613076;54;20423;-61
2024/01/31 11:04:45;;;;;;;4.03;3.63;;;22.10;1.00;;;;;;2613524;54;20183;-62
2024/01/31 11:07:21;;;;;;;3.03;2.83;;;22.10;1.00;;;;;;2612137;47;20464;-62
2024/01/31 11:09:50;;;;;;;3.40;3.00;;;22.00;1.00;;;;;;2613027;54;21019;-62
2024/01/31 11:12:17;;;;;;;2.97;2.77;;;21.90;1.00;;;;;;2612158;54;20431;-61
2024/01/31 11:14:44;;;;;;;2.90;2.60;;;21.90;1.00;;;;;;2612766;54;20494;-61
2024/01/31 11:17:12;;;;;;;2.73;2.53;;;21.80;1.00;;;;;;2612736;54;20489;-67
2024/01/31 11:19:58;;;;;;;3.10;2.90;;;21.80;1.00;;;;;;2612912;54;20415;-67
2024/01/31 11:22:24;;;;;;;2.87;2.67;;;21.80;1.00;;;;;;2612576;54;20415;-67
2024/01/31 11:24:55;;;;;;;3.13;2.93;;;21.80;1.00;;;;;;2612887;54;20480;-67
2024/01/31 11:27:22;;;;;;;3.13;2.90;;;21.70;1.00;;;;;;2612743;47;20474;-68
2024/01/31 11:29:50;;;;;;;3.20;3.00;;;21.70;1.00;;;;;;2613823;39;20795;-67
2024/01/31 11:32:24;;;;;;;3.50;3.20;;;21.70;1.00;;;;;;2614072;39;21354;-67
2024/01/31 11:35:00;;;;;;;3.90;3.50;;;21.70;1.00;;;;;;2613609;54;20432;-60
2024/01/31 11:37:26;;;;;;;3.37;3.13;;;21.70;1.00;;;;;;2613059;54;20499;-56
2024/01/31 11:39:51;;;;;;;3.50;3.30;;;21.70;1.00;;;;;;2612235;54;20956;-56
2024/01/31 11:42:18;;;;;;;4.37;3.97;;;21.70;1.00;;;;;;2611285;54;20179;-57
2024/01/31 11:44:47;;;;;;;4.07;3.77;;;21.70;1.00;;;;;;2612791;54;20175;-58
2024/01/31 11:47:14;;;;;;;3.70;3.40;;;21.70;1.00;;;;;;2612336;47;20941;-67
2024/01/31 11:49:40;;;;;;;3.70;3.00;;;21.80;1.00;;;;;;2612839;54;20463;-67
2024/01/31 11:52:05;;;;;;;5.10;4.70;;;21.80;1.00;;;;;;2612841;54;20428;-67
2024/01/31 11:54:31;;;;;;;4.70;4.40;;;21.80;1.00;;;;;;2612438;47;20203;-68
2024/01/31 11:56:57;;;;;;;4.23;3.90;;;21.80;1.00;;;;;;2611893;47;20286;-67
2024/01/31 11:59:23;;;;;;;4.00;3.70;;;21.80;1.00;;;;;;2610822;54;20173;-68
2024/01/31 12:01:49;;;;;;;4.17;3.70;;;21.80;1.00;;;;;;2612301;54;20142;-68
2024/01/31 12:04:14;;;;;;;3.73;3.53;;;21.80;1.00;;;;;;2612516;54;21110;-68
2024/01/31 12:06:40;;;;;;;5.80;3.60;;;21.80;1.00;;;;;;2612128;39;20739;-67
2024/01/31 12:09:06;;;;;;;4.37;4.07;;;21.90;1.00;;;;;;2611941;47;20177;-67
2024/01/31 12:11:32;;;;;;;3.90;3.17;;;22.00;1.00;;;;;;2613088;54;20163;-67
2024/01/31 12:13:58;;;;;;;4.30;3.97;;;22.00;1.00;;;;;;2612945;47;20164;-68
2024/01/31 12:16:24;;;;;;;4.10;3.80;;;22.00;1.00;;;;;;2612760;47;20959;-68
2024/01/31 12:19:02;;;;;;;3.87;3.60;;;22.00;1.00;;;;;;2612682;39;20468;-67
2024/01/31 12:21:28;;;;;;;3.90;3.67;;;22.00;1.00;;;;;;2612795;54;21074;-67
2024/01/31 12:23:53;;;;;;;3.37;3.07;;;22.10;1.00;;;;;;2612127;54;20410;-67
2024/01/31 12:26:20;;;;;;;3.47;3.00;;;22.10;1.00;;;;;;2612787;54;20170;-67
2024/01/31 12:28:57;;;;;;;5.17;4.00;;;22.10;1.00;;;;;;2612824;54;20250;-67
2024/01/31 12:31:23;;;;;;;3.40;3.13;;;22.10;1.00;;;;;;2612596;54;20417;-67
2024/01/31 12:33:49;;;;;;;3.80;3.50;;;22.10;1.00;;;;;;2613219;54;20418;-67
2024/01/31 12:36:14;;;;;;;3.83;3.63;;;22.10;1.00;;;;;;2612402;47;20157;-68
2024/01/31 12:38:40;;;;;;;4.00;3.80;;;22.10;1.00;;;;;;2613064;54;20160;-68
2024/01/31 12:41:06;;;;;;;4.50;4.10;;;22.10;1.00;;;;;;2613186;54;20164;-67
2024/01/31 12:43:32;;;;;;;4.03;3.73;;;22.10;1.00;;;;;;2611520;54;20245;-68
2024/01/31 12:45:57;;;;;;;7.30;3.40;;;22.10;1.00;;;;;;2612559;47;20281;-58
2024/01/31 12:48:24;;;;;;;4.20;3.80;;;22.10;1.00;;;;;;2611889;54;20163;-58
2024/01/31 12:50:51;;;;;;;3.40;3.20;;;22.20;1.00;;;;;;2611754;54;20206;-57
2024/01/31 12:53:17;;;;;;;3.50;3.30;;;22.10;1.00;;;;;;2611034;47;20440;-59